Time,TemperatureF,DewpointF,PressureIn,WindDirection,WindDirectionDegrees,WindSpeedMPH,WindSpeedGustMPH,Humidity,HourlyPrecipIn,Conditions,Clouds,dailyrainin,SoftwareType,DateUTC
2013-02-16 00:03:00,37.2,27.0,28.86,South,180,3.0,4.0,66,0.00,,,0.00,meteohub,2013-02-16 06:03:00,
2013-02-16 00:08:00,36.9,26.6,28.86,South,180,2.0,4.0,66,0.00,,,0.00,meteohub,2013-02-16 06:08:00,
2013-02-16 00:13:00,36.5,26.2,28.86,SE,135,2.0,3.0,66,0.00,,,0.00,meteohub,2013-02-16 06:13:00,
2013-02-16 00:18:00,36.3,26.4,28.86,South,180,2.0,3.0,67,0.00,,,0.00,meteohub,2013-02-16 06:18:00,
2013-02-16 00:23:00,36.1,26.6,28.86,SE,135,2.0,2.0,68,0.00,,,0.00,meteohub,2013-02-16 06:23:00,
2013-02-16 00:28:00,35.8,27.0,28.86,South,180,2.0,2.0,70,0.00,,,0.00,meteohub,2013-02-16 06:28:00,
2013-02-16 00:33:00,35.2,26.8,28.86,South,180,3.0,4.0,71,0.00,,,0.00,meteohub,2013-02-16 06:33:00,
2013-02-16 00:38:00,34.9,26.8,28.85,South,180,6.0,6.0,72,0.00,,,0.00,meteohub,2013-02-16 06:38:00,
2013-02-16 00:43:00,34.5,27.1,28.85,SW,225,2.0,6.0,74,0.00,,,0.00,meteohub,2013-02-16 06:43:00,
2013-02-16 00:48:00,34.0,27.0,28.85,SW,225,3.0,6.0,75,0.00,,,0.00,meteohub,2013-02-16 06:48:00,
2013-02-16 00:53:00,33.6,26.8,28.85,South,180,4.0,6.0,76,0.00,,,0.00,meteohub,2013-02-16 06:53:00,
2013-02-16 00:58:00,33.3,26.6,28.85,SSE,158,2.0,6.0,76,0.00,,,0.00,meteohub,2013-02-16 06:58:00,
2013-02-16 01:03:00,33.1,27.0,28.85,SW,225,2.0,4.0,78,0.00,,,0.00,meteohub,2013-02-16 07:03:00,
2013-02-16 01:08:00,32.7,27.0,28.85,SW,225,3.0,4.0,79,0.00,,,0.00,meteohub,2013-02-16 07:08:00,
2013-02-16 01:13:00,32.5,26.8,28.85,SW,225,2.0,4.0,79,0.00,,,0.00,meteohub,2013-02-16 07:13:00,
2013-02-16 01:18:00,32.4,27.0,28.85,SW,225,3.0,4.0,80,0.00,,,0.00,meteohub,2013-02-16 07:18:00,
2013-02-16 01:23:00,32.2,27.0,28.85,SW,225,2.0,4.0,81,0.00,,,0.00,meteohub,2013-02-16 07:23:00,
2013-02-16 01:28:00,32.2,26.8,28.86,SW,225,2.0,4.0,80,0.00,,,0.00,meteohub,2013-02-16 07:28:00,
2013-02-16 01:34:00,32.0,26.8,28.85,SW,225,4.0,4.0,81,0.00,,,0.00,meteohub,2013-02-16 07:34:00,
2013-02-16 01:39:00,31.8,26.6,28.86,South,180,2.0,4.0,81,0.00,,,0.00,meteohub,2013-02-16 07:39:00,
2013-02-16 01:44:00,31.5,26.2,28.85,South,180,2.0,4.0,81,0.00,,,0.00,meteohub,2013-02-16 07:44:00,
2013-02-16 01:49:00,31.3,26.1,28.85,SW,225,1.0,4.0,81,0.00,,,0.00,meteohub,2013-02-16 07:49:00,
2013-02-16 01:54:00,30.9,26.1,28.86,West,270,1.0,4.0,82,0.00,,,0.00,meteohub,2013-02-16 07:54:00,
2013-02-16 01:59:00,31.1,26.2,28.85,SW,225,2.0,3.0,82,0.00,,,0.00,meteohub,2013-02-16 07:59:00,
2013-02-16 02:04:00,31.5,26.6,28.86,NW,315,2.0,2.0,82,0.00,,,0.00,meteohub,2013-02-16 08:04:00,
2013-02-16 02:09:00,31.5,27.0,28.86,NW,315,2.0,2.0,83,0.00,,,0.00,meteohub,2013-02-16 08:09:00,
2013-02-16 02:14:00,31.3,27.0,28.86,NW,315,2.0,3.0,84,0.00,,,0.00,meteohub,2013-02-16 08:14:00,
2013-02-16 02:19:00,31.1,26.8,28.86,NW,315,2.0,3.0,84,0.00,,,0.00,meteohub,2013-02-16 08:19:00,
2013-02-16 02:24:00,30.9,26.6,28.86,North,0,7.0,7.0,84,0.00,,,0.00,meteohub,2013-02-16 08:24:00,
2013-02-16 02:29:00,30.9,27.0,28.86,NE,45,8.0,8.0,85,0.00,,,0.00,meteohub,2013-02-16 08:29:00,
2013-02-16 02:34:00,31.3,27.0,28.86,North,0,4.0,10.0,84,0.00,,,0.00,meteohub,2013-02-16 08:34:00,
2013-02-16 02:39:00,31.3,27.0,28.86,North,0,5.0,10.0,84,0.00,,,0.00,meteohub,2013-02-16 08:39:00,
2013-02-16 02:44:00,31.6,27.1,28.86,North,0,6.0,10.0,83,0.00,,,0.00,meteohub,2013-02-16 08:44:00,
2013-02-16 02:49:00,32.0,27.1,28.86,North,0,4.0,8.0,82,0.00,,,0.00,meteohub,2013-02-16 08:49:00,
2013-02-16 02:54:00,32.2,27.3,28.86,North,0,4.0,8.0,82,0.00,,,0.00,meteohub,2013-02-16 08:54:00,
2013-02-16 02:59:00,32.2,27.0,28.86,North,0,4.0,8.0,81,0.00,,,0.00,meteohub,2013-02-16 08:59:00,
2013-02-16 03:04:00,32.0,26.8,28.86,NE,45,3.0,6.0,81,0.00,,,0.00,meteohub,2013-02-16 09:04:00,
2013-02-16 03:09:00,31.8,26.6,28.85,NE,45,2.0,4.0,81,0.00,,,0.00,meteohub,2013-02-16 09:09:00,
2013-02-16 03:14:00,31.5,26.2,28.85,East,90,4.0,4.0,81,0.00,,,0.00,meteohub,2013-02-16 09:14:00,
2013-02-16 03:19:00,31.3,26.4,28.86,NE,45,2.0,4.0,82,0.00,,,0.00,meteohub,2013-02-16 09:19:00,
2013-02-16 03:24:00,31.3,26.8,28.86,NE,45,2.0,4.0,83,0.00,,,0.00,meteohub,2013-02-16 09:24:00,
2013-02-16 03:29:00,31.1,26.8,28.85,North,0,2.0,4.0,84,0.00,,,0.00,meteohub,2013-02-16 09:29:00,
2013-02-16 03:34:00,31.1,26.8,28.86,North,0,2.0,3.0,84,0.00,,,0.00,meteohub,2013-02-16 09:34:00,
2013-02-16 03:39:00,30.7,26.4,28.85,North,0,2.0,3.0,84,0.00,,,0.00,meteohub,2013-02-16 09:39:00,
2013-02-16 03:44:00,30.2,25.9,28.85,North,0,2.0,3.0,84,0.00,,,0.00,meteohub,2013-02-16 09:44:00,
2013-02-16 03:49:00,30.0,25.7,28.85,NW,315,1.0,3.0,84,0.00,,,0.00,meteohub,2013-02-16 09:49:00,
2013-02-16 03:54:00,30.0,25.7,28.86,West,270,2.0,2.0,84,0.00,,,0.00,meteohub,2013-02-16 09:54:00,
2013-02-16 03:59:00,30.0,26.1,28.85,West,270,2.0,2.0,85,0.00,,,0.00,meteohub,2013-02-16 09:59:00,
2013-02-16 04:04:00,28.9,24.8,28.86,West,270,2.0,2.0,84,0.00,,,0.00,meteohub,2013-02-16 10:04:00,
2013-02-16 04:09:00,28.2,24.3,28.86,West,270,2.0,2.0,85,0.00,,,0.00,meteohub,2013-02-16 10:09:00,
2013-02-16 04:14:00,28.0,24.4,28.86,West,270,0.0,2.0,86,0.00,,,0.00,meteohub,2013-02-16 10:14:00,
2013-02-16 04:19:00,27.5,24.4,28.86,NW,315,2.0,2.0,88,0.00,,,0.00,meteohub,2013-02-16 10:19:00,
2013-02-16 04:24:00,27.5,25.0,28.86,NNW,338,2.0,2.0,90,0.00,,,0.00,meteohub,2013-02-16 10:24:00,
2013-02-16 04:29:00,27.9,26.1,28.85,North,0,4.0,4.0,93,0.00,,,0.00,meteohub,2013-02-16 10:29:00,
2013-02-16 04:34:00,28.0,26.6,28.86,NW,315,4.0,4.0,94,0.00,,,0.00,meteohub,2013-02-16 10:34:00,
2013-02-16 04:39:00,28.6,27.5,28.85,NW,315,4.0,5.0,96,0.00,,,0.00,meteohub,2013-02-16 10:39:00,
2013-02-16 04:44:00,28.9,28.2,28.86,NW,315,4.0,5.0,97,0.00,,,0.00,meteohub,2013-02-16 10:44:00,
2013-02-16 04:49:00,28.9,28.2,28.86,North,0,4.0,5.0,97,0.00,,,0.00,meteohub,2013-02-16 10:49:00,
2013-02-16 04:54:00,28.9,28.2,28.86,NW,315,7.0,7.0,97,0.00,,,0.00,meteohub,2013-02-16 10:54:00,
2013-02-16 04:59:00,28.8,28.0,28.86,North,0,7.0,7.0,97,0.00,,,0.00,meteohub,2013-02-16 10:59:00,
2013-02-16 05:04:00,28.4,27.9,28.86,North,0,8.0,8.0,98,0.00,,,0.00,meteohub,2013-02-16 11:04:00,
2013-02-16 05:09:00,28.2,28.0,28.86,North,0,7.0,8.0,99,0.00,,,0.00,meteohub,2013-02-16 11:09:00,
2013-02-16 05:14:00,28.4,28.2,28.86,NW,315,7.0,8.0,99,0.00,,,0.00,meteohub,2013-02-16 11:14:00,
2013-02-16 05:19:00,28.8,28.6,28.86,NW,315,5.0,8.0,99,0.00,,,0.00,meteohub,2013-02-16 11:19:00,
2013-02-16 05:24:00,29.3,29.1,28.87,NW,315,3.0,8.0,99,0.00,,,0.00,meteohub,2013-02-16 11:24:00,
2013-02-16 05:29:00,29.5,29.3,28.87,NW,315,4.0,8.0,99,0.00,,,0.00,meteohub,2013-02-16 11:29:00,
2013-02-16 05:34:00,29.8,29.7,28.87,NW,315,5.0,7.0,99,0.00,,,0.00,meteohub,2013-02-16 11:34:00,
2013-02-16 05:39:00,29.8,29.7,28.86,WNW,293,10.0,10.0,99,0.00,,,0.00,meteohub,2013-02-16 11:39:00,
2013-02-16 05:44:00,29.8,29.7,28.87,North,0,5.0,7.0,99,0.00,,,0.00,meteohub,2013-02-16 11:44:00,
2013-02-16 05:49:00,30.0,29.8,28.87,North,0,6.0,10.0,99,0.00,,,0.00,meteohub,2013-02-16 11:49:00,
2013-02-16 05:55:00,30.4,30.2,28.87,North,0,8.0,10.0,99,0.00,,,0.00,meteohub,2013-02-16 11:55:00,
2013-02-16 06:00:00,30.4,30.2,28.87,NW,315,5.0,8.0,99,0.00,,,0.00,meteohub,2013-02-16 12:00:00,
2013-02-16 06:05:00,30.4,30.2,28.87,NW,315,4.0,8.0,99,0.00,,,0.00,meteohub,2013-02-16 12:05:00,
2013-02-16 06:10:00,30.6,30.4,28.87,NW,315,5.0,8.0,99,0.00,,,0.00,meteohub,2013-02-16 12:10:00,
2013-02-16 06:15:00,30.7,30.6,28.87,North,0,7.0,8.0,99,0.00,,,0.00,meteohub,2013-02-16 12:15:00,
2013-02-16 06:20:00,30.6,30.4,28.86,North,0,7.0,8.0,99,0.00,,,0.00,meteohub,2013-02-16 12:20:00,
2013-02-16 06:25:00,30.9,30.7,28.86,NW,315,5.0,10.0,99,0.00,,,0.00,meteohub,2013-02-16 12:25:00,
2013-02-16 06:30:00,30.9,30.7,28.86,NW,315,6.0,10.0,99,0.00,,,0.00,meteohub,2013-02-16 12:30:00,
2013-02-16 06:35:00,30.9,30.7,28.86,NW,315,6.0,10.0,99,0.00,,,0.00,meteohub,2013-02-16 12:35:00,
2013-02-16 06:40:00,30.7,30.6,28.86,North,0,3.0,8.0,99,0.00,,,0.00,meteohub,2013-02-16 12:40:00,
2013-02-16 06:45:00,30.6,30.4,28.86,NW,315,3.0,8.0,99,0.00,,,0.00,meteohub,2013-02-16 12:45:00,
2013-02-16 06:50:00,30.6,30.4,28.86,North,0,4.0,7.0,99,0.00,,,0.00,meteohub,2013-02-16 12:50:00,
2013-02-16 06:55:00,30.6,30.4,28.86,West,270,3.0,7.0,99,0.00,,,0.00,meteohub,2013-02-16 12:55:00,
2013-02-16 07:00:00,30.6,30.4,28.86,North,0,2.0,7.0,99,0.00,,,0.00,meteohub,2013-02-16 13:00:00,
2013-02-16 07:05:00,30.6,30.4,28.87,West,270,4.0,7.0,99,0.00,,,0.00,meteohub,2013-02-16 13:05:00,
2013-02-16 07:10:00,30.4,30.2,28.87,NW,315,6.0,6.0,99,0.00,,,0.00,meteohub,2013-02-16 13:10:00,
2013-02-16 07:15:00,30.4,30.2,28.87,NW,315,4.0,8.0,99,0.00,,,0.00,meteohub,2013-02-16 13:15:00,
2013-02-16 07:20:00,30.2,30.0,28.87,West,270,5.0,8.0,99,0.00,,,0.00,meteohub,2013-02-16 13:20:00,
2013-02-16 07:25:00,30.2,30.0,28.87,NW,315,4.0,7.0,99,0.00,,,0.00,meteohub,2013-02-16 13:25:00,
2013-02-16 07:30:00,30.0,29.8,28.87,NW,315,4.0,6.0,99,0.00,,,0.00,meteohub,2013-02-16 13:30:00,
2013-02-16 07:35:00,29.8,29.7,28.87,West,270,2.0,7.0,99,0.00,,,0.00,meteohub,2013-02-16 13:35:00,
2013-02-16 07:40:00,30.0,29.8,28.87,West,270,4.0,7.0,99,0.00,,,0.00,meteohub,2013-02-16 13:40:00,
2013-02-16 07:45:00,29.8,29.7,28.87,WNW,293,4.0,7.0,99,0.00,,,0.00,meteohub,2013-02-16 13:45:00,
2013-02-16 07:50:00,29.8,29.7,28.87,NW,315,5.0,5.0,99,0.00,,,0.00,meteohub,2013-02-16 13:50:00,
2013-02-16 07:55:00,30.0,29.8,28.87,NW,315,5.0,5.0,99,0.00,,,0.00,meteohub,2013-02-16 13:55:00,
2013-02-16 08:00:00,29.8,29.7,28.87,NW,315,4.0,5.0,99,0.00,,,0.00,meteohub,2013-02-16 14:00:00,
2013-02-16 08:05:00,29.7,29.5,28.87,WNW,293,4.0,5.0,99,0.00,,,0.00,meteohub,2013-02-16 14:05:00,
2013-02-16 08:10:00,29.8,29.7,28.87,North,0,4.0,5.0,99,0.00,,,0.00,meteohub,2013-02-16 14:10:00,
2013-02-16 08:15:00,29.8,29.7,28.88,North,0,4.0,5.0,99,0.00,,,0.00,meteohub,2013-02-16 14:15:00,
2013-02-16 08:20:00,29.7,29.5,28.87,NW,315,2.0,6.0,99,0.00,,,0.00,meteohub,2013-02-16 14:20:00,
2013-02-16 08:25:00,30.0,29.8,28.87,North,0,3.0,6.0,99,0.00,,,0.00,meteohub,2013-02-16 14:25:00,
2013-02-16 08:30:00,30.0,29.8,28.88,North,0,4.0,6.0,99,0.00,,,0.00,meteohub,2013-02-16 14:30:00,
2013-02-16 08:35:00,30.4,30.2,28.87,NE,45,4.0,5.0,99,0.00,,,0.00,meteohub,2013-02-16 14:35:00,
2013-02-16 08:40:00,30.4,30.2,28.87,NE,45,3.0,4.0,99,0.00,,,0.00,meteohub,2013-02-16 14:40:00,
2013-02-16 08:45:00,30.2,30.0,28.87,NNW,338,3.0,4.0,99,0.00,,,0.00,meteohub,2013-02-16 14:45:00,
2013-02-16 08:50:00,30.0,29.8,28.87,NW,315,2.0,4.0,99,0.00,,,0.00,meteohub,2013-02-16 14:50:00,
2013-02-16 08:55:00,29.8,29.7,28.87,NW,315,2.0,4.0,99,0.00,,,0.00,meteohub,2013-02-16 14:55:00,
2013-02-16 09:00:00,30.0,29.8,28.87,West,270,2.0,5.0,99,0.00,,,0.00,meteohub,2013-02-16 15:00:00,
2013-02-16 09:05:00,30.0,29.8,28.88,NW,315,2.0,5.0,99,0.00,,,0.00,meteohub,2013-02-16 15:05:00,
2013-02-16 09:10:00,30.4,30.2,28.88,North,0,2.0,5.0,99,0.00,,,0.00,meteohub,2013-02-16 15:10:00,
2013-02-16 09:15:00,30.6,30.4,28.88,NE,45,3.0,4.0,99,0.00,,,0.00,meteohub,2013-02-16 15:15:00,
2013-02-16 09:20:00,30.4,30.2,28.88,West,270,2.0,4.0,99,0.00,,,0.00,meteohub,2013-02-16 15:20:00,
2013-02-16 09:25:00,30.7,30.6,28.88,SW,225,4.0,4.0,99,0.00,,,0.00,meteohub,2013-02-16 15:25:00,
2013-02-16 09:30:00,30.9,30.7,28.88,West,270,2.0,4.0,99,0.00,,,0.00,meteohub,2013-02-16 15:30:00,
2013-02-16 09:35:00,30.9,30.7,28.88,NW,315,3.0,4.0,99,0.00,,,0.00,meteohub,2013-02-16 15:35:00,
2013-02-16 09:40:00,30.6,30.4,28.87,West,270,5.0,5.0,99,0.00,,,0.00,meteohub,2013-02-16 15:40:00,
2013-02-16 09:45:00,30.7,30.6,28.87,NW,315,2.0,6.0,99,0.00,,,0.00,meteohub,2013-02-16 15:45:00,
2013-02-16 09:50:00,31.1,30.9,28.87,West,270,2.0,6.0,99,0.00,,,0.00,meteohub,2013-02-16 15:50:00,
2013-02-16 09:55:00,31.6,31.5,28.87,NE,45,3.0,5.0,99,0.00,,,0.00,meteohub,2013-02-16 15:55:00,
2013-02-16 10:01:00,31.6,31.5,28.87,North,0,1.0,4.0,99,0.00,,,0.00,meteohub,2013-02-16 16:01:00,
2013-02-16 10:06:00,32.0,31.8,28.86,WNW,293,2.0,3.0,99,0.00,,,0.00,meteohub,2013-02-16 16:06:00,
2013-02-16 10:11:00,32.0,31.8,28.86,West,270,2.0,3.0,99,0.00,,,0.00,meteohub,2013-02-16 16:11:00,
2013-02-16 10:16:00,32.0,31.8,28.86,South,180,3.0,3.0,99,0.00,,,0.00,meteohub,2013-02-16 16:16:00,
2013-02-16 10:21:00,32.2,32.0,28.86,West,270,4.0,4.0,99,0.00,,,0.00,meteohub,2013-02-16 16:21:00,
2013-02-16 10:26:00,32.4,32.2,28.86,SW,225,2.0,4.0,99,0.00,,,0.00,meteohub,2013-02-16 16:26:00,
2013-02-16 10:31:00,32.7,32.5,28.86,SW,225,3.0,4.0,99,0.00,,,0.00,meteohub,2013-02-16 16:31:00,
2013-02-16 10:36:00,32.7,32.5,28.85,West,270,2.0,5.0,99,0.00,,,0.00,meteohub,2013-02-16 16:36:00,
2013-02-16 10:41:00,33.3,33.1,28.84,South,180,3.0,5.0,99,0.00,,,0.00,meteohub,2013-02-16 16:41:00,
2013-02-16 10:46:00,34.3,34.2,28.84,South,180,1.0,5.0,99,0.00,,,0.00,meteohub,2013-02-16 16:46:00,
2013-02-16 10:51:00,35.4,35.2,28.84,South,180,5.0,5.0,99,0.00,,,0.00,meteohub,2013-02-16 16:51:00,
2013-02-16 10:56:00,35.1,34.9,28.84,South,180,4.0,6.0,99,0.00,,,0.00,meteohub,2013-02-16 16:56:00,
2013-02-16 11:01:00,35.1,34.9,28.84,SSE,158,2.0,7.0,99,0.00,,,0.00,meteohub,2013-02-16 17:01:00,
2013-02-16 11:06:00,35.1,34.9,28.84,South,180,5.0,7.0,99,0.00,,,0.00,meteohub,2013-02-16 17:06:00,
2013-02-16 11:11:00,35.6,35.4,28.84,South,180,8.0,8.0,99,0.00,,,0.00,meteohub,2013-02-16 17:11:00,
2013-02-16 11:16:00,35.6,35.4,28.83,South,180,3.0,9.0,99,0.00,,,0.00,meteohub,2013-02-16 17:16:00,
2013-02-16 11:21:00,36.3,35.8,28.83,East,90,4.0,9.0,98,0.00,,,0.00,meteohub,2013-02-16 17:21:00,
2013-02-16 11:26:00,36.5,35.8,28.83,East,90,4.0,9.0,97,0.00,,,0.00,meteohub,2013-02-16 17:26:00,
2013-02-16 11:31:00,36.9,35.8,28.82,SE,135,8.0,8.0,96,0.00,,,0.00,meteohub,2013-02-16 17:31:00,
2013-02-16 11:36:00,37.8,35.6,28.82,SSE,158,4.0,8.0,92,0.00,,,0.00,meteohub,2013-02-16 17:36:00,
2013-02-16 11:41:00,38.5,36.1,28.83,SE,135,6.0,8.0,91,0.00,,,0.00,meteohub,2013-02-16 17:41:00,
2013-02-16 11:46:00,38.3,35.1,28.82,East,90,2.0,8.0,88,0.00,,,0.00,meteohub,2013-02-16 17:46:00,
2013-02-16 11:51:00,39.4,36.5,28.82,NE,45,3.0,8.0,89,0.00,,,0.00,meteohub,2013-02-16 17:51:00,
2013-02-16 11:56:00,40.3,36.1,28.82,East,90,5.0,6.0,85,0.00,,,0.00,meteohub,2013-02-16 17:56:00,
2013-02-16 12:01:00,40.3,35.2,28.82,South,180,6.0,8.0,82,0.00,,,0.00,meteohub,2013-02-16 18:01:00,
2013-02-16 12:06:00,39.9,35.8,28.82,East,90,7.0,8.0,85,0.00,,,0.00,meteohub,2013-02-16 18:06:00,
2013-02-16 12:11:00,40.8,36.1,28.81,South,180,6.0,8.0,83,0.00,,,0.00,meteohub,2013-02-16 18:11:00,
2013-02-16 12:16:00,41.0,35.2,28.81,SE,135,6.0,9.0,80,0.00,,,0.00,meteohub,2013-02-16 18:16:00,
2013-02-16 12:21:00,40.8,35.4,28.80,East,90,4.0,11.0,81,0.00,,,0.00,meteohub,2013-02-16 18:21:00,
2013-02-16 12:26:00,41.4,35.4,28.80,SE,135,8.0,11.0,79,0.00,,,0.00,meteohub,2013-02-16 18:26:00,
2013-02-16 12:31:00,42.3,36.0,28.80,East,90,5.0,11.0,78,0.00,,,0.00,meteohub,2013-02-16 18:31:00,
2013-02-16 12:36:00,42.8,36.1,28.80,South,180,4.0,9.0,77,0.00,,,0.00,meteohub,2013-02-16 18:36:00,
2013-02-16 12:41:00,43.2,35.4,28.79,South,180,10.0,10.0,74,0.00,,,0.00,meteohub,2013-02-16 18:41:00,
2013-02-16 12:46:00,43.3,36.0,28.78,South,180,8.0,10.0,75,0.00,,,0.00,meteohub,2013-02-16 18:46:00,
2013-02-16 12:51:00,43.7,35.2,28.78,South,180,9.0,10.0,72,0.00,,,0.00,meteohub,2013-02-16 18:51:00,
2013-02-16 12:56:00,43.7,35.6,28.78,SE,135,8.0,10.0,73,0.00,,,0.00,meteohub,2013-02-16 18:56:00,
2013-02-16 13:02:00,44.1,35.6,28.77,SE,135,5.0,10.0,72,0.00,,,0.00,meteohub,2013-02-16 19:02:00,
2013-02-16 13:07:00,44.4,36.0,28.76,SE,135,5.0,11.0,72,0.00,,,0.00,meteohub,2013-02-16 19:07:00,
2013-02-16 13:12:00,45.0,36.5,28.76,SE,135,8.0,11.0,72,0.00,,,0.00,meteohub,2013-02-16 19:12:00,
2013-02-16 13:17:00,45.7,36.1,28.76,ESE,113,6.0,11.0,69,0.00,,,0.00,meteohub,2013-02-16 19:17:00,
2013-02-16 13:22:00,46.2,36.3,28.75,SW,225,8.0,11.0,68,0.00,,,0.00,meteohub,2013-02-16 19:22:00,
2013-02-16 13:27:00,46.8,34.5,28.75,South,180,13.0,13.0,62,0.00,,,0.00,meteohub,2013-02-16 19:27:00,
2013-02-16 13:32:00,47.3,35.8,28.75,ESE,113,8.0,13.0,64,0.00,,,0.00,meteohub,2013-02-16 19:32:00,
2013-02-16 13:37:00,47.7,34.9,28.74,SSE,158,8.0,13.0,61,0.00,,,0.00,meteohub,2013-02-16 19:37:00,
2013-02-16 13:42:00,48.2,35.8,28.74,NW,315,7.0,13.0,62,0.00,,,0.00,meteohub,2013-02-16 19:42:00,
2013-02-16 13:47:00,48.7,36.0,28.74,South,180,9.0,11.0,61,0.00,,,0.00,meteohub,2013-02-16 19:47:00,
2013-02-16 13:52:00,48.9,35.6,28.73,SE,135,7.0,11.0,60,0.00,,,0.00,meteohub,2013-02-16 19:52:00,
2013-02-16 13:57:00,49.3,36.3,28.73,SW,225,5.0,10.0,61,0.00,,,0.00,meteohub,2013-02-16 19:57:00,
2013-02-16 14:02:00,50.7,35.6,28.73,SW,225,15.0,15.0,56,0.00,,,0.00,meteohub,2013-02-16 20:02:00,
2013-02-16 14:07:00,51.1,34.5,28.72,SW,225,9.0,15.0,53,0.00,,,0.00,meteohub,2013-02-16 20:07:00,
2013-02-16 14:12:00,51.6,35.6,28.72,South,180,14.0,15.0,54,0.00,,,0.00,meteohub,2013-02-16 20:12:00,
2013-02-16 14:17:00,52.0,35.4,28.72,SW,225,11.0,15.0,53,0.00,,,0.00,meteohub,2013-02-16 20:17:00,
2013-02-16 14:22:00,52.2,33.6,28.72,NW,315,11.0,14.0,49,0.00,,,0.00,meteohub,2013-02-16 20:22:00,
2013-02-16 14:27:00,52.5,31.8,28.71,South,180,15.0,15.0,45,0.00,,,0.00,meteohub,2013-02-16 20:27:00,
2013-02-16 14:32:00,53.1,32.4,28.70,North,0,9.0,15.0,45,0.00,,,0.00,meteohub,2013-02-16 20:32:00,
2013-02-16 14:37:00,53.4,30.9,28.70,South,180,10.0,15.0,42,0.00,,,0.00,meteohub,2013-02-16 20:37:00,
2013-02-16 14:42:00,54.7,33.3,28.70,SW,225,6.0,15.0,44,0.00,,,0.00,meteohub,2013-02-16 20:42:00,
2013-02-16 14:47:00,55.4,30.2,28.69,SW,225,11.0,15.0,38,0.00,,,0.00,meteohub,2013-02-16 20:47:00,
2013-02-16 14:52:00,55.2,29.5,28.69,South,180,11.0,15.0,37,0.00,,,0.00,meteohub,2013-02-16 20:52:00,
2013-02-16 14:57:00,55.0,28.6,28.69,SW,225,11.0,13.0,36,0.00,,,0.00,meteohub,2013-02-16 20:57:00,
2013-02-16 15:02:00,54.9,29.7,28.69,South,180,11.0,15.0,38,0.00,,,0.00,meteohub,2013-02-16 21:02:00,
2013-02-16 15:07:00,55.0,29.3,28.68,SSW,203,8.0,15.0,37,0.00,,,0.00,meteohub,2013-02-16 21:07:00,
2013-02-16 15:12:00,55.6,28.4,28.68,SE,135,12.0,16.0,35,0.00,,,0.00,meteohub,2013-02-16 21:12:00,
2013-02-16 15:17:00,56.1,29.5,28.67,SW,225,5.0,16.0,36,0.00,,,0.00,meteohub,2013-02-16 21:17:00,
2013-02-16 15:22:00,57.0,28.2,28.67,South,180,11.0,16.0,33,0.00,,,0.00,meteohub,2013-02-16 21:22:00,
2013-02-16 15:27:00,57.0,28.2,28.67,SW,225,10.0,16.0,33,0.00,,,0.00,meteohub,2013-02-16 21:27:00,
2013-02-16 15:32:00,57.4,27.7,28.66,South,180,14.0,15.0,32,0.00,,,0.00,meteohub,2013-02-16 21:32:00,
2013-02-16 15:37:00,57.2,26.1,28.66,South,180,11.0,15.0,30,0.00,,,0.00,meteohub,2013-02-16 21:37:00,
2013-02-16 15:42:00,57.6,28.6,28.66,South,180,11.0,15.0,33,0.00,,,0.00,meteohub,2013-02-16 21:42:00,
2013-02-16 15:47:00,57.0,28.2,28.66,South,180,8.0,15.0,33,0.00,,,0.00,meteohub,2013-02-16 21:47:00,
2013-02-16 15:52:00,57.6,29.5,28.66,SW,225,12.0,15.0,34,0.00,,,0.00,meteohub,2013-02-16 21:52:00,
2013-02-16 15:57:00,57.4,29.3,28.66,South,180,11.0,15.0,34,0.00,,,0.00,meteohub,2013-02-16 21:57:00,
2013-02-16 16:02:00,57.0,29.7,28.66,South,180,8.0,15.0,35,0.00,,,0.00,meteohub,2013-02-16 22:02:00,
2013-02-16 16:07:00,57.7,29.5,28.66,SE,135,10.0,15.0,34,0.00,,,0.00,meteohub,2013-02-16 22:07:00,
2013-02-16 16:12:00,57.6,29.5,28.65,South,180,9.0,15.0,34,0.00,,,0.00,meteohub,2013-02-16 22:12:00,
2013-02-16 16:17:00,58.1,26.1,28.65,SW,225,15.0,15.0,29,0.00,,,0.00,meteohub,2013-02-16 22:17:00,
2013-02-16 16:22:00,58.3,25.3,28.64,South,180,16.0,16.0,28,0.00,,,0.00,meteohub,2013-02-16 22:22:00,
2013-02-16 16:27:00,58.1,26.1,28.64,WNW,293,12.0,16.0,29,0.00,,,0.00,meteohub,2013-02-16 22:27:00,
2013-02-16 16:32:00,58.1,26.1,28.63,South,180,11.0,16.0,29,0.00,,,0.00,meteohub,2013-02-16 22:32:00,
2013-02-16 16:37:00,58.1,26.8,28.63,South,180,11.0,16.0,30,0.00,,,0.00,meteohub,2013-02-16 22:37:00,
2013-02-16 16:42:00,58.1,26.1,28.63,NW,315,12.0,15.0,29,0.00,,,0.00,meteohub,2013-02-16 22:42:00,
2013-02-16 16:47:00,58.6,27.3,28.63,South,180,13.0,15.0,30,0.00,,,0.00,meteohub,2013-02-16 22:47:00,
2013-02-16 16:52:00,58.5,27.1,28.63,SSW,203,11.0,15.0,30,0.00,,,0.00,meteohub,2013-02-16 22:52:00,
2013-02-16 16:57:00,58.8,26.6,28.62,SW,225,8.0,15.0,29,0.00,,,0.00,meteohub,2013-02-16 22:57:00,
2013-02-16 17:02:00,59.0,27.7,28.62,SW,225,10.0,15.0,30,0.00,,,0.00,meteohub,2013-02-16 23:02:00,
2013-02-16 17:07:00,58.8,26.6,28.62,South,180,11.0,13.0,29,0.00,,,0.00,meteohub,2013-02-16 23:07:00,
2013-02-16 17:12:00,58.8,26.6,28.62,South,180,8.0,13.0,29,0.00,,,0.00,meteohub,2013-02-16 23:12:00,
2013-02-16 17:17:00,58.5,25.5,28.61,West,270,9.0,13.0,28,0.00,,,0.00,meteohub,2013-02-16 23:17:00,
2013-02-16 17:22:00,58.3,27.9,28.62,South,180,9.0,14.0,31,0.00,,,0.00,meteohub,2013-02-16 23:22:00,
2013-02-16 17:27:00,58.5,27.9,28.61,South,180,11.0,14.0,31,0.00,,,0.00,meteohub,2013-02-16 23:27:00,
2013-02-16 17:32:00,58.3,27.9,28.61,South,180,8.0,14.0,31,0.00,,,0.00,meteohub,2013-02-16 23:32:00,
2013-02-16 17:37:00,57.9,27.5,28.61,South,180,8.0,12.0,31,0.00,,,0.00,meteohub,2013-02-16 23:37:00,
2013-02-16 17:42:00,57.9,28.9,28.61,SW,225,5.0,12.0,33,0.00,,,0.00,meteohub,2013-02-16 23:42:00,
2013-02-16 17:47:00,57.4,29.3,28.61,SSE,158,8.0,10.0,34,0.00,,,0.00,meteohub,2013-02-16 23:47:00,
2013-02-16 17:52:00,57.4,30.0,28.61,SE,135,4.0,10.0,35,0.00,,,0.00,meteohub,2013-02-16 23:52:00,
2013-02-16 17:57:00,56.7,30.0,28.61,SW,225,6.0,10.0,36,0.00,,,0.00,meteohub,2013-02-16 23:57:00,
2013-02-16 18:02:00,56.1,30.2,28.61,South,180,7.0,8.0,37,0.00,,,0.00,meteohub,2013-02-17 00:02:00,
2013-02-16 18:07:00,55.2,30.7,28.61,SE,135,5.0,8.0,39,0.00,,,0.00,meteohub,2013-02-17 00:07:00,
2013-02-16 18:12:00,54.9,31.6,28.61,East,90,4.0,8.0,41,0.00,,,0.00,meteohub,2013-02-17 00:12:00,
2013-02-16 18:17:00,54.0,31.5,28.61,South,180,6.0,7.0,42,0.00,,,0.00,meteohub,2013-02-17 00:17:00,
2013-02-16 18:22:00,53.2,32.4,28.61,SE,135,3.0,7.0,45,0.00,,,0.00,meteohub,2013-02-17 00:22:00,
2013-02-16 18:27:00,52.5,32.4,28.61,SE,135,3.0,6.0,46,0.00,,,0.00,meteohub,2013-02-17 00:27:00,
2013-02-16 18:32:00,52.3,32.2,28.61,SE,135,4.0,6.0,46,0.00,,,0.00,meteohub,2013-02-17 00:32:00,
2013-02-16 18:37:00,52.0,31.8,28.61,East,90,4.0,6.0,46,0.00,,,0.00,meteohub,2013-02-17 00:37:00,
2013-02-16 18:42:00,52.0,31.8,28.61,SE,135,4.0,6.0,46,0.00,,,0.00,meteohub,2013-02-17 00:42:00,
2013-02-16 18:47:00,51.4,31.8,28.61,South,180,3.0,5.0,47,0.00,,,0.00,meteohub,2013-02-17 00:47:00,
2013-02-16 18:52:00,51.3,31.6,28.60,SE,135,3.0,5.0,47,0.00,,,0.00,meteohub,2013-02-17 00:52:00,
2013-02-16 18:57:00,51.3,31.1,28.60,SSE,158,5.0,5.0,46,0.00,,,0.00,meteohub,2013-02-17 00:57:00,
2013-02-16 19:02:00,50.9,30.9,28.60,SE,135,4.0,5.0,46,0.00,,,0.00,meteohub,2013-02-17 01:02:00,
2013-02-16 19:07:00,50.9,30.4,28.60,SSE,158,4.0,6.0,45,0.00,,,0.00,meteohub,2013-02-17 01:07:00,
2013-02-16 19:12:00,51.1,30.6,28.60,SSE,158,5.0,6.0,45,0.00,,,0.00,meteohub,2013-02-17 01:12:00,
2013-02-16 19:17:00,51.1,29.8,28.60,SE,135,5.0,7.0,44,0.00,,,0.00,meteohub,2013-02-17 01:17:00,
2013-02-16 19:22:00,51.3,29.5,28.60,East,90,7.0,7.0,43,0.00,,,0.00,meteohub,2013-02-17 01:22:00,
2013-02-16 19:27:00,50.9,29.8,28.60,SE,135,5.0,7.0,44,0.00,,,0.00,meteohub,2013-02-17 01:27:00,
2013-02-16 19:32:00,50.5,30.0,28.60,SE,135,4.0,7.0,45,0.00,,,0.00,meteohub,2013-02-17 01:32:00,
2013-02-16 19:37:00,50.4,29.8,28.60,SE,135,5.0,7.0,45,0.00,,,0.00,meteohub,2013-02-17 01:37:00,
2013-02-16 19:42:00,50.0,30.0,28.60,East,90,4.0,7.0,46,0.00,,,0.00,meteohub,2013-02-17 01:42:00,
2013-02-16 19:47:00,50.0,30.0,28.60,SE,135,5.0,8.0,46,0.00,,,0.00,meteohub,2013-02-17 01:47:00,
2013-02-16 19:52:00,49.8,29.8,28.60,East,90,5.0,8.0,46,0.00,,,0.00,meteohub,2013-02-17 01:52:00,
2013-02-16 19:57:00,49.8,29.8,28.60,SE,135,5.0,8.0,46,0.00,,,0.00,meteohub,2013-02-17 01:57:00,
2013-02-16 20:02:00,49.3,29.8,28.60,SE,135,6.0,8.0,47,0.00,,,0.00,meteohub,2013-02-17 02:02:00,
2013-02-16 20:07:00,49.3,29.8,28.60,NE,45,6.0,8.0,47,0.00,,,0.00,meteohub,2013-02-17 02:07:00,
2013-02-16 20:12:00,49.3,29.8,28.59,East,90,6.0,8.0,47,0.00,,,0.00,meteohub,2013-02-17 02:12:00,
2013-02-16 20:17:00,49.3,29.8,28.59,East,90,5.0,7.0,47,0.00,,,0.00,meteohub,2013-02-17 02:17:00,
2013-02-16 20:22:00,48.9,30.0,28.60,East,90,8.0,8.0,48,0.00,,,0.00,meteohub,2013-02-17 02:22:00,
2013-02-16 20:27:00,48.6,29.8,28.60,SE,135,6.0,8.0,48,0.00,,,0.00,meteohub,2013-02-17 02:27:00,
2013-02-16 20:32:00,48.7,29.8,28.59,SE,135,6.0,8.0,48,0.00,,,0.00,meteohub,2013-02-17 02:32:00,
2013-02-16 20:37:00,48.7,29.8,28.59,SE,135,6.0,8.0,48,0.00,,,0.00,meteohub,2013-02-17 02:37:00,
2013-02-16 20:42:00,48.4,30.0,28.59,SE,135,4.0,8.0,49,0.00,,,0.00,meteohub,2013-02-17 02:42:00,
2013-02-16 20:47:00,48.4,30.0,28.59,East,90,8.0,8.0,49,0.00,,,0.00,meteohub,2013-02-17 02:47:00,
2013-02-16 20:52:00,48.0,29.8,28.59,ESE,113,6.0,8.0,49,0.00,,,0.00,meteohub,2013-02-17 02:52:00,
2013-02-16 20:57:00,48.4,30.0,28.59,East,90,6.0,8.0,49,0.00,,,0.00,meteohub,2013-02-17 02:57:00,
2013-02-16 21:02:00,47.7,30.0,28.59,SE,135,4.0,8.0,50,0.00,,,0.00,meteohub,2013-02-17 03:02:00,
2013-02-16 21:07:00,47.5,29.8,28.58,East,90,5.0,7.0,50,0.00,,,0.00,meteohub,2013-02-17 03:07:00,
2013-02-16 21:12:00,47.5,29.3,28.59,SE,135,5.0,8.0,49,0.00,,,0.00,meteohub,2013-02-17 03:12:00,
2013-02-16 21:17:00,48.4,29.7,28.59,SE,135,5.0,8.0,48,0.00,,,0.00,meteohub,2013-02-17 03:17:00,
2013-02-16 21:22:00,48.4,29.7,28.59,SE,135,7.0,8.0,48,0.00,,,0.00,meteohub,2013-02-17 03:22:00,
2013-02-16 21:27:00,48.2,29.5,28.59,East,90,5.0,10.0,48,0.00,,,0.00,meteohub,2013-02-17 03:27:00,
2013-02-16 21:32:00,47.5,29.3,28.59,ESE,113,10.0,10.0,49,0.00,,,0.00,meteohub,2013-02-17 03:32:00,
2013-02-16 21:37:00,46.8,29.1,28.59,East,90,7.0,10.0,50,0.00,,,0.00,meteohub,2013-02-17 03:37:00,
2013-02-16 21:42:00,46.8,29.7,28.59,East,90,6.0,10.0,51,0.00,,,0.00,meteohub,2013-02-17 03:42:00,
2013-02-16 21:47:00,46.2,29.5,28.59,East,90,8.0,10.0,52,0.00,,,0.00,meteohub,2013-02-17 03:47:00,
2013-02-16 21:52:00,45.3,29.7,28.59,East,90,6.0,9.0,54,0.00,,,0.00,meteohub,2013-02-17 03:52:00,
2013-02-16 21:57:00,45.1,30.0,28.59,East,90,8.0,9.0,55,0.00,,,0.00,meteohub,2013-02-17 03:57:00,
2013-02-16 22:02:00,44.4,29.7,28.58,SE,135,5.0,8.0,56,0.00,,,0.00,meteohub,2013-02-17 04:02:00,
2013-02-16 22:07:00,44.8,30.0,28.58,East,90,5.0,8.0,56,0.00,,,0.00,meteohub,2013-02-17 04:07:00,
2013-02-16 22:12:00,45.0,29.8,28.59,East,90,6.0,8.0,55,0.00,,,0.00,meteohub,2013-02-17 04:12:00,
2013-02-16 22:17:00,45.0,29.8,28.59,East,90,6.0,7.0,55,0.00,,,0.00,meteohub,2013-02-17 04:17:00,
2013-02-16 22:22:00,45.0,29.8,28.59,South,180,5.0,6.0,55,0.00,,,0.00,meteohub,2013-02-17 04:22:00,
2013-02-16 22:27:00,45.5,29.8,28.59,SE,135,6.0,7.0,54,0.00,,,0.00,meteohub,2013-02-17 04:27:00,
2013-02-16 22:32:00,45.7,29.5,28.58,South,180,4.0,7.0,53,0.00,,,0.00,meteohub,2013-02-17 04:32:00,
2013-02-16 22:37:00,46.0,29.8,28.59,East,90,5.0,7.0,53,0.00,,,0.00,meteohub,2013-02-17 04:37:00,
2013-02-16 22:42:00,45.5,29.3,28.58,SE,135,7.0,7.0,53,0.00,,,0.00,meteohub,2013-02-17 04:42:00,
2013-02-16 22:47:00,45.3,29.1,28.58,SE,135,5.0,7.0,53,0.00,,,0.00,meteohub,2013-02-17 04:47:00,
2013-02-16 22:52:00,45.3,29.7,28.58,East,90,5.0,7.0,54,0.00,,,0.00,meteohub,2013-02-17 04:52:00,
2013-02-16 22:57:00,45.5,29.3,28.58,SE,135,8.0,8.0,53,0.00,,,0.00,meteohub,2013-02-17 04:57:00,
2013-02-16 23:00:00,45.3,29.1,28.58,SE,135,8.0,8.0,53,0.00,,,0.00,meteohub,2013-02-17 05:00:00,
2013-02-16 23:05:00,45.5,29.3,28.58,East,90,7.0,8.0,53,0.00,,,0.00,meteohub,2013-02-17 05:05:00,
2013-02-16 23:10:00,45.1,28.9,28.58,SE,135,4.0,8.0,53,0.00,,,0.00,meteohub,2013-02-17 05:10:00,
2013-02-16 23:15:00,44.6,29.5,28.58,SE,135,6.0,8.0,55,0.00,,,0.00,meteohub,2013-02-17 05:15:00,
2013-02-16 23:20:00,44.1,29.3,28.58,East,90,7.0,8.0,56,0.00,,,0.00,meteohub,2013-02-17 05:20:00,
2013-02-16 23:25:00,43.5,29.3,28.58,SE,135,7.0,8.0,57,0.00,,,0.00,meteohub,2013-02-17 05:25:00,
2013-02-16 23:30:00,43.7,29.8,28.57,East,90,6.0,8.0,58,0.00,,,0.00,meteohub,2013-02-17 05:30:00,
2013-02-16 23:35:00,43.3,29.5,28.57,East,90,4.0,8.0,58,0.00,,,0.00,meteohub,2013-02-17 05:35:00,
2013-02-16 23:40:00,43.2,29.3,28.57,East,90,6.0,7.0,58,0.00,,,0.00,meteohub,2013-02-17 05:40:00,
2013-02-16 23:45:00,43.0,29.7,28.57,SE,135,4.0,7.0,59,0.00,,,0.00,meteohub,2013-02-17 05:45:00,
2013-02-16 23:50:00,43.0,29.7,28.57,East,90,4.0,7.0,59,0.00,,,0.00,meteohub,2013-02-17 05:50:00,
2013-02-16 23:55:00,42.6,29.7,28.56,East,90,6.0,6.0,60,0.00,,,0.00,meteohub,2013-02-17 05:55:00,